X  Close Metar Aviation Weather Data     KBWI Baltimore/Washington International Thurgood Marshall Airport
Temperature
54°F Temperature
52°F Dewpoint
94% Humidity



Wind
7 MPH
11 KM/H
3 M/S
6 KTS



330°
NNW
Current Conditions

Light Rain, Mist Light Rain, Mist
Pressure 1012.22 (hPa) - 29.89 (inHg)
Visibility 2 (mile) - 3.2 (km)
Airport
Airport-code KBWI

Location: Baltimore/Washington International Thurgood Marshall Airport
Distance: 10 (mi)

Metar:
KBWI 051054Z 33006KT 2SM -RA BR BKN008 OVC014 12/11 A2989 RMK AO2 SLP123 P0003 T01170106

Time: 10-05-2022 6:54 am EDT